sensor_id;sensor_type;location;lat;lon;timestamp;P1;durP1;ratioP1;P2;durP2;ratioP2
68608;SDS011;55581;46.718;7.690;2023-12-14T00:00:27;2.13;;;0.27;;
68608;SDS011;55581;46.718;7.690;2023-12-14T00:02:53;1.63;;;0.10;;
68608;SDS011;55581;46.718;7.690;2023-12-14T00:05:18;2.13;;;0.10;;
68608;SDS011;55581;46.718;7.690;2023-12-14T00:07:44;2.53;;;0.30;;
68608;SDS011;55581;46.718;7.690;2023-12-14T00:10:12;2.00;;;0.30;;
68608;SDS011;55581;46.718;7.690;2023-12-14T00:12:38;3.60;;;0.97;;
68608;SDS011;55581;46.718;7.690;2023-12-14T00:15:04;3.33;;;1.15;;
68608;SDS011;55581;46.718;7.690;2023-12-14T00:17:30;5.20;;;1.40;;
68608;SDS011;55581;46.718;7.690;2023-12-14T00:19:56;4.47;;;1.20;;
68608;SDS011;55581;46.718;7.690;2023-12-14T00:22:21;4.13;;;1.17;;
68608;SDS011;55581;46.718;7.690;2023-12-14T00:24:47;4.75;;;1.00;;
68608;SDS011;55581;46.718;7.690;2023-12-14T00:27:12;4.43;;;0.97;;
68608;SDS011;55581;46.718;7.690;2023-12-14T00:29:38;4.33;;;1.00;;
68608;SDS011;55581;46.718;7.690;2023-12-14T00:32:03;3.30;;;0.90;;
68608;SDS011;55581;46.718;7.690;2023-12-14T00:34:32;3.92;;;0.85;;
68608;SDS011;55581;46.718;7.690;2023-12-14T00:37:00;3.30;;;0.88;;
68608;SDS011;55581;46.718;7.690;2023-12-14T00:39:26;2.50;;;0.57;;
68608;SDS011;55581;46.718;7.690;2023-12-14T00:41:53;2.90;;;0.73;;
68608;SDS011;55581;46.718;7.690;2023-12-14T00:44:19;3.43;;;0.80;;
68608;SDS011;55581;46.718;7.690;2023-12-14T00:46:45;3.85;;;0.80;;
68608;SDS011;55581;46.718;7.690;2023-12-14T00:49:11;3.03;;;0.73;;
68608;SDS011;55581;46.718;7.690;2023-12-14T00:51:36;3.23;;;0.70;;
68608;SDS011;55581;46.718;7.690;2023-12-14T00:54:03;3.33;;;1.00;;
68608;SDS011;55581;46.718;7.690;2023-12-14T00:56:28;3.03;;;0.97;;
68608;SDS011;55581;46.718;7.690;2023-12-14T00:58:56;5.07;;;1.27;;
68608;SDS011;55581;46.718;7.690;2023-12-14T01:01:24;3.38;;;0.80;;
68608;SDS011;55581;46.718;7.690;2023-12-14T01:03:49;3.13;;;0.80;;
68608;SDS011;55581;46.718;7.690;2023-12-14T01:06:17;3.60;;;1.43;;
68608;SDS011;55581;46.718;7.690;2023-12-14T01:08:45;3.47;;;1.10;;
68608;SDS011;55581;46.718;7.690;2023-12-14T01:11:11;4.15;;;1.70;;
68608;SDS011;55581;46.718;7.690;2023-12-14T01:13:37;3.50;;;0.80;;
68608;SDS011;55581;46.718;7.690;2023-12-14T01:16:02;4.07;;;1.07;;
68608;SDS011;55581;46.718;7.690;2023-12-14T01:18:28;3.17;;;0.90;;
68608;SDS011;55581;46.718;7.690;2023-12-14T01:20:53;3.57;;;0.90;;
68608;SDS011;55581;46.718;7.690;2023-12-14T01:23:20;3.92;;;0.95;;
68608;SDS011;55581;46.718;7.690;2023-12-14T01:25:48;1.92;;;0.20;;
68608;SDS011;55581;46.718;7.690;2023-12-14T01:28:13;2.33;;;0.47;;
68608;SDS011;55581;46.718;7.690;2023-12-14T01:30:39;1.50;;;0.10;;
68608;SDS011;55581;46.718;7.690;2023-12-14T01:33:04;1.52;;;0.20;;
68608;SDS011;55581;46.718;7.690;2023-12-14T01:35:30;0.93;;;0.17;;
68608;SDS011;55581;46.718;7.690;2023-12-14T01:37:55;1.20;;;0.20;;
68608;SDS011;55581;46.718;7.690;2023-12-14T01:40:20;4.03;;;0.37;;
68608;SDS011;55581;46.718;7.690;2023-12-14T01:42:47;1.75;;;0.30;;
68608;SDS011;55581;46.718;7.690;2023-12-14T01:45:13;2.53;;;0.30;;
68608;SDS011;55581;46.718;7.690;2023-12-14T01:47:45;3.92;;;0.52;;
68608;SDS011;55581;46.718;7.690;2023-12-14T01:50:10;2.83;;;0.60;;
68608;SDS011;55581;46.718;7.690;2023-12-14T01:52:36;2.80;;;0.60;;
68608;SDS011;55581;46.718;7.690;2023-12-14T01:55:04;4.22;;;1.27;;
68608;SDS011;55581;46.718;7.690;2023-12-14T01:57:32;4.05;;;1.25;;
68608;SDS011;55581;46.718;7.690;2023-12-14T01:59:58;3.63;;;1.50;;
68608;SDS011;55581;46.718;7.690;2023-12-14T02:02:23;3.80;;;1.13;;
68608;SDS011;55581;46.718;7.690;2023-12-14T02:04:49;4.07;;;1.60;;
68608;SDS011;55581;46.718;7.690;2023-12-14T02:07:14;4.63;;;1.30;;
68608;SDS011;55581;46.718;7.690;2023-12-14T02:09:39;2.57;;;0.70;;
68608;SDS011;55581;46.718;7.690;2023-12-14T02:12:05;2.20;;;0.57;;
68608;SDS011;55581;46.718;7.690;2023-12-14T02:14:30;2.78;;;0.60;;
68608;SDS011;55581;46.718;7.690;2023-12-14T02:16:56;3.17;;;0.80;;
68608;SDS011;55581;46.718;7.690;2023-12-14T02:19:21;3.07;;;0.70;;
68608;SDS011;55581;46.718;7.690;2023-12-14T02:21:47;3.10;;;0.63;;
68608;SDS011;55581;46.718;7.690;2023-12-14T02:24:13;5.33;;;1.10;;
68608;SDS011;55581;46.718;7.690;2023-12-14T02:26:38;2.43;;;0.60;;
68608;SDS011;55581;46.718;7.690;2023-12-14T02:29:03;2.70;;;0.50;;
68608;SDS011;55581;46.718;7.690;2023-12-14T02:31:29;2.33;;;0.45;;
68608;SDS011;55581;46.718;7.690;2023-12-14T02:33:54;1.53;;;0.30;;
68608;SDS011;55581;46.718;7.690;2023-12-14T02:36:19;1.87;;;0.47;;
68608;SDS011;55581;46.718;7.690;2023-12-14T02:38:46;1.93;;;0.33;;
68608;SDS011;55581;46.718;7.690;2023-12-14T02:41:12;3.08;;;0.50;;
68608;SDS011;55581;46.718;7.690;2023-12-14T02:43:37;1.87;;;0.40;;
68608;SDS011;55581;46.718;7.690;2023-12-14T02:46:05;1.27;;;0.20;;
68608;SDS011;55581;46.718;7.690;2023-12-14T02:48:30;1.70;;;0.30;;
68608;SDS011;55581;46.718;7.690;2023-12-14T02:50:56;2.67;;;0.30;;
68608;SDS011;55581;46.718;7.690;2023-12-14T02:53:21;1.60;;;0.30;;
68608;SDS011;55581;46.718;7.690;2023-12-14T02:55:47;2.10;;;0.33;;
68608;SDS011;55581;46.718;7.690;2023-12-14T02:58:12;1.60;;;0.20;;
68608;SDS011;55581;46.718;7.690;2023-12-14T03:00:38;4.80;;;0.50;;
68608;SDS011;55581;46.718;7.690;2023-12-14T03:03:03;1.67;;;0.20;;
68608;SDS011;55581;46.718;7.690;2023-12-14T03:05:28;1.60;;;0.20;;
68608;SDS011;55581;46.718;7.690;2023-12-14T03:07:56;2.75;;;0.20;;
68608;SDS011;55581;46.718;7.690;2023-12-14T03:10:21;2.00;;;0.30;;
68608;SDS011;55581;46.718;7.690;2023-12-14T03:12:47;2.20;;;0.30;;
68608;SDS011;55581;46.718;7.690;2023-12-14T03:15:16;1.33;;;0.15;;
68608;SDS011;55581;46.718;7.690;2023-12-14T03:17:43;1.42;;;0.25;;
68608;SDS011;55581;46.718;7.690;2023-12-14T03:20:08;1.60;;;0.17;;
68608;SDS011;55581;46.718;7.690;2023-12-14T03:22:34;1.30;;;0.20;;
68608;SDS011;55581;46.718;7.690;2023-12-14T03:24:59;1.13;;;0.20;;
68608;SDS011;55581;46.718;7.690;2023-12-14T03:27:25;1.60;;;0.30;;
68608;SDS011;55581;46.718;7.690;2023-12-14T03:29:51;2.95;;;0.22;;
68608;SDS011;55581;46.718;7.690;2023-12-14T03:32:17;1.80;;;0.37;;
68608;SDS011;55581;46.718;7.690;2023-12-14T03:34:42;2.20;;;0.40;;
68608;SDS011;55581;46.718;7.690;2023-12-14T03:37:07;1.97;;;0.30;;
68608;SDS011;55581;46.718;7.690;2023-12-14T03:39:33;2.00;;;0.30;;
68608;SDS011;55581;46.718;7.690;2023-12-14T03:41:58;2.10;;;0.40;;
68608;SDS011;55581;46.718;7.690;2023-12-14T03:44:23;1.57;;;0.20;;
68608;SDS011;55581;46.718;7.690;2023-12-14T03:46:51;1.10;;;0.20;;
68608;SDS011;55581;46.718;7.690;2023-12-14T03:49:17;1.70;;;0.30;;
68608;SDS011;55581;46.718;7.690;2023-12-14T03:51:42;1.90;;;0.20;;
68608;SDS011;55581;46.718;7.690;2023-12-14T03:54:08;1.52;;;0.20;;
68608;SDS011;55581;46.718;7.690;2023-12-14T03:56:33;1.93;;;0.10;;
68608;SDS011;55581;46.718;7.690;2023-12-14T03:58:59;0.88;;;0.20;;
68608;SDS011;55581;46.718;7.690;2023-12-14T04:01:26;0.93;;;0.30;;
68608;SDS011;55581;46.718;7.690;2023-12-14T04:03:53;1.33;;;0.15;;
68608;SDS011;55581;46.718;7.690;2023-12-14T04:06:19;0.77;;;0.10;;
68608;SDS011;55581;46.718;7.690;2023-12-14T04:08:47;5.33;;;0.30;;
68608;SDS011;55581;46.718;7.690;2023-12-14T04:11:12;1.05;;;0.22;;
68608;SDS011;55581;46.718;7.690;2023-12-14T04:13:38;2.10;;;0.57;;
68608;SDS011;55581;46.718;7.690;2023-12-14T04:16:04;1.10;;;0.20;;
68608;SDS011;55581;46.718;7.690;2023-12-14T04:18:30;2.03;;;0.10;;
68608;SDS011;55581;46.718;7.690;2023-12-14T04:20:56;1.07;;;0.10;;
68608;SDS011;55581;46.718;7.690;2023-12-14T04:23:22;0.93;;;0.10;;
68608;SDS011;55581;46.718;7.690;2023-12-14T04:25:51;0.80;;;0.10;;
68608;SDS011;55581;46.718;7.690;2023-12-14T04:28:17;1.23;;;0.10;;
68608;SDS011;55581;46.718;7.690;2023-12-14T04:30:45;0.77;;;0.10;;
68608;SDS011;55581;46.718;7.690;2023-12-14T04:33:10;0.80;;;0.10;;
68608;SDS011;55581;46.718;7.690;2023-12-14T04:35:38;2.53;;;0.10;;
68608;SDS011;55581;46.718;7.690;2023-12-14T04:38:03;0.80;;;0.10;;
68608;SDS011;55581;46.718;7.690;2023-12-14T04:40:29;0.67;;;0.10;;
68608;SDS011;55581;46.718;7.690;2023-12-14T04:42:58;1.00;;;0.10;;
68608;SDS011;55581;46.718;7.690;2023-12-14T04:45:23;1.10;;;0.10;;
68608;SDS011;55581;46.718;7.690;2023-12-14T04:47:48;0.40;;;0.10;;
68608;SDS011;55581;46.718;7.690;2023-12-14T04:50:14;1.13;;;0.10;;
68608;SDS011;55581;46.718;7.690;2023-12-14T04:52:41;0.75;;;0.10;;
68608;SDS011;55581;46.718;7.690;2023-12-14T04:55:07;0.80;;;0.10;;
68608;SDS011;55581;46.718;7.690;2023-12-14T04:57:36;0.47;;;0.03;;
68608;SDS011;55581;46.718;7.690;2023-12-14T05:00:02;2.58;;;0.10;;
68608;SDS011;55581;46.718;7.690;2023-12-14T05:02:32;1.17;;;0.20;;
68608;SDS011;55581;46.718;7.690;2023-12-14T05:05:00;0.70;;;0.10;;
68608;SDS011;55581;46.718;7.690;2023-12-14T05:07:27;0.68;;;0.10;;
68608;SDS011;55581;46.718;7.690;2023-12-14T05:09:55;1.10;;;0.10;;
68608;SDS011;55581;46.718;7.690;2023-12-14T05:12:21;1.35;;;0.10;;
68608;SDS011;55581;46.718;7.690;2023-12-14T05:14:50;0.83;;;0.10;;
68608;SDS011;55581;46.718;7.690;2023-12-14T05:17:16;0.75;;;0.10;;
68608;SDS011;55581;46.718;7.690;2023-12-14T05:19:41;0.40;;;0.10;;
68608;SDS011;55581;46.718;7.690;2023-12-14T05:22:07;1.27;;;0.13;;
68608;SDS011;55581;46.718;7.690;2023-12-14T05:24:32;0.55;;;0.10;;
68608;SDS011;55581;46.718;7.690;2023-12-14T05:27:04;0.57;;;0.10;;
68608;SDS011;55581;46.718;7.690;2023-12-14T05:29:29;0.67;;;0.10;;
68608;SDS011;55581;46.718;7.690;2023-12-14T05:31:58;0.90;;;0.10;;
68608;SDS011;55581;46.718;7.690;2023-12-14T05:34:24;0.40;;;0.10;;
68608;SDS011;55581;46.718;7.690;2023-12-14T05:36:49;0.73;;;0.10;;
68608;SDS011;55581;46.718;7.690;2023-12-14T05:39:16;0.60;;;0.20;;
68608;SDS011;55581;46.718;7.690;2023-12-14T05:41:42;1.73;;;0.10;;
68608;SDS011;55581;46.718;7.690;2023-12-14T05:44:09;1.55;;;0.20;;
68608;SDS011;55581;46.718;7.690;2023-12-14T05:46:35;1.23;;;0.20;;
68608;SDS011;55581;46.718;7.690;2023-12-14T05:49:01;1.25;;;0.43;;
68608;SDS011;55581;46.718;7.690;2023-12-14T05:51:30;1.65;;;0.22;;
68608;SDS011;55581;46.718;7.690;2023-12-14T05:53:56;1.00;;;0.10;;
68608;SDS011;55581;46.718;7.690;2023-12-14T05:56:29;1.35;;;0.28;;
68608;SDS011;55581;46.718;7.690;2023-12-14T05:58:55;1.40;;;0.28;;
68608;SDS011;55581;46.718;7.690;2023-12-14T06:01:22;1.42;;;0.20;;
68608;SDS011;55581;46.718;7.690;2023-12-14T06:03:48;1.48;;;0.30;;
68608;SDS011;55581;46.718;7.690;2023-12-14T06:06:14;1.20;;;0.20;;
68608;SDS011;55581;46.718;7.690;2023-12-14T06:08:40;2.97;;;0.30;;
68608;SDS011;55581;46.718;7.690;2023-12-14T06:11:06;1.33;;;0.20;;
68608;SDS011;55581;46.718;7.690;2023-12-14T06:13:32;2.45;;;0.20;;
68608;SDS011;55581;46.718;7.690;2023-12-14T06:16:00;1.70;;;0.40;;
68608;SDS011;55581;46.718;7.690;2023-12-14T06:18:29;1.03;;;0.13;;
68608;SDS011;55581;46.718;7.690;2023-12-14T06:20:55;1.52;;;0.10;;
68608;SDS011;55581;46.718;7.690;2023-12-14T06:23:20;1.00;;;0.10;;
68608;SDS011;55581;46.718;7.690;2023-12-14T06:25:46;1.77;;;0.20;;
68608;SDS011;55581;46.718;7.690;2023-12-14T06:28:12;1.47;;;0.30;;
68608;SDS011;55581;46.718;7.690;2023-12-14T06:30:37;1.10;;;0.20;;
68608;SDS011;55581;46.718;7.690;2023-12-14T06:33:03;2.00;;;0.47;;
68608;SDS011;55581;46.718;7.690;2023-12-14T06:35:29;1.63;;;0.30;;
68608;SDS011;55581;46.718;7.690;2023-12-14T06:37:54;1.90;;;0.57;;
68608;SDS011;55581;46.718;7.690;2023-12-14T06:40:22;2.13;;;0.40;;
68608;SDS011;55581;46.718;7.690;2023-12-14T06:42:47;2.90;;;0.53;;
68608;SDS011;55581;46.718;7.690;2023-12-14T06:45:14;2.95;;;0.80;;
68608;SDS011;55581;46.718;7.690;2023-12-14T06:47:40;2.60;;;0.67;;
68608;SDS011;55581;46.718;7.690;2023-12-14T06:50:09;2.03;;;0.50;;
68608;SDS011;55581;46.718;7.690;2023-12-14T06:52:34;1.65;;;0.40;;
68608;SDS011;55581;46.718;7.690;2023-12-14T06:55:00;2.67;;;0.40;;
68608;SDS011;55581;46.718;7.690;2023-12-14T06:57:28;1.98;;;0.30;;
68608;SDS011;55581;46.718;7.690;2023-12-14T06:59:54;1.73;;;0.30;;
68608;SDS011;55581;46.718;7.690;2023-12-14T07:02:20;2.10;;;0.43;;
68608;SDS011;55581;46.718;7.690;2023-12-14T07:04:46;2.65;;;0.50;;
68608;SDS011;55581;46.718;7.690;2023-12-14T07:07:14;2.28;;;0.40;;
68608;SDS011;55581;46.718;7.690;2023-12-14T07:09:41;1.35;;;0.35;;
68608;SDS011;55581;46.718;7.690;2023-12-14T07:12:06;2.30;;;0.30;;
68608;SDS011;55581;46.718;7.690;2023-12-14T07:14:33;1.85;;;0.38;;
68608;SDS011;55581;46.718;7.690;2023-12-14T07:16:58;1.80;;;0.20;;
68608;SDS011;55581;46.718;7.690;2023-12-14T07:19:23;2.27;;;0.30;;
68608;SDS011;55581;46.718;7.690;2023-12-14T07:21:49;4.97;;;0.43;;
68608;SDS011;55581;46.718;7.690;2023-12-14T07:24:14;8.67;;;0.60;;
68608;SDS011;55581;46.718;7.690;2023-12-14T07:26:42;2.00;;;0.30;;
68608;SDS011;55581;46.718;7.690;2023-12-14T07:29:07;2.73;;;0.50;;
68608;SDS011;55581;46.718;7.690;2023-12-14T07:31:36;4.75;;;0.38;;
68608;SDS011;55581;46.718;7.690;2023-12-14T07:34:04;4.75;;;0.55;;
68608;SDS011;55581;46.718;7.690;2023-12-14T07:36:30;3.80;;;0.70;;
68608;SDS011;55581;46.718;7.690;2023-12-14T07:38:55;4.50;;;0.80;;
68608;SDS011;55581;46.718;7.690;2023-12-14T07:41:26;6.93;;;0.93;;
68608;SDS011;55581;46.718;7.690;2023-12-14T07:43:54;4.00;;;1.00;;
68608;SDS011;55581;46.718;7.690;2023-12-14T07:46:23;9.25;;;0.95;;
68608;SDS011;55581;46.718;7.690;2023-12-14T07:48:48;4.70;;;0.60;;
68608;SDS011;55581;46.718;7.690;2023-12-14T07:51:15;4.25;;;0.40;;
68608;SDS011;55581;46.718;7.690;2023-12-14T07:53:40;5.18;;;0.70;;
68608;SDS011;55581;46.718;7.690;2023-12-14T07:56:07;8.07;;;0.73;;
68608;SDS011;55581;46.718;7.690;2023-12-14T07:58:33;4.70;;;0.60;;
68608;SDS011;55581;46.718;7.690;2023-12-14T08:00:58;5.17;;;0.60;;
68608;SDS011;55581;46.718;7.690;2023-12-14T08:03:24;6.13;;;0.80;;
68608;SDS011;55581;46.718;7.690;2023-12-14T08:05:49;4.30;;;0.60;;
68608;SDS011;55581;46.718;7.690;2023-12-14T08:08:15;4.32;;;0.50;;
68608;SDS011;55581;46.718;7.690;2023-12-14T08:10:40;2.70;;;0.50;;
68608;SDS011;55581;46.718;7.690;2023-12-14T08:13:05;5.50;;;0.60;;
68608;SDS011;55581;46.718;7.690;2023-12-14T08:15:31;4.93;;;0.63;;
68608;SDS011;55581;46.718;7.690;2023-12-14T08:18:00;3.83;;;0.70;;
68608;SDS011;55581;46.718;7.690;2023-12-14T08:20:26;4.78;;;0.77;;
68608;SDS011;55581;46.718;7.690;2023-12-14T08:22:51;4.80;;;1.73;;
68608;SDS011;55581;46.718;7.690;2023-12-14T08:25:17;3.63;;;1.17;;
68608;SDS011;55581;46.718;7.690;2023-12-14T08:27:44;2.47;;;0.50;;
68608;SDS011;55581;46.718;7.690;2023-12-14T08:30:10;2.17;;;0.20;;
68608;SDS011;55581;46.718;7.690;2023-12-14T08:32:36;4.45;;;0.30;;
68608;SDS011;55581;46.718;7.690;2023-12-14T08:35:01;2.47;;;0.60;;
68608;SDS011;55581;46.718;7.690;2023-12-14T08:37:27;3.22;;;0.40;;
68608;SDS011;55581;46.718;7.690;2023-12-14T08:39:52;1.83;;;0.40;;
68608;SDS011;55581;46.718;7.690;2023-12-14T08:42:20;2.88;;;0.20;;
68608;SDS011;55581;46.718;7.690;2023-12-14T08:44:46;1.37;;;0.53;;
68608;SDS011;55581;46.718;7.690;2023-12-14T08:47:11;1.20;;;0.20;;
68608;SDS011;55581;46.718;7.690;2023-12-14T08:49:37;2.83;;;0.45;;
68608;SDS011;55581;46.718;7.690;2023-12-14T08:52:02;1.57;;;0.13;;
68608;SDS011;55581;46.718;7.690;2023-12-14T08:54:29;0.70;;;0.10;;
68608;SDS011;55581;46.718;7.690;2023-12-14T08:56:56;1.10;;;0.10;;
68608;SDS011;55581;46.718;7.690;2023-12-14T08:59:22;0.90;;;0.10;;
68608;SDS011;55581;46.718;7.690;2023-12-14T09:01:50;2.22;;;0.20;;
68608;SDS011;55581;46.718;7.690;2023-12-14T09:04:15;1.07;;;0.10;;
68608;SDS011;55581;46.718;7.690;2023-12-14T09:06:41;2.13;;;0.20;;
68608;SDS011;55581;46.718;7.690;2023-12-14T09:09:09;2.75;;;0.20;;
68608;SDS011;55581;46.718;7.690;2023-12-14T09:11:35;1.50;;;0.20;;
68608;SDS011;55581;46.718;7.690;2023-12-14T09:14:02;1.40;;;0.13;;
68608;SDS011;55581;46.718;7.690;2023-12-14T09:16:27;1.73;;;0.20;;
68608;SDS011;55581;46.718;7.690;2023-12-14T09:18:53;3.43;;;0.30;;
68608;SDS011;55581;46.718;7.690;2023-12-14T09:21:18;1.83;;;0.20;;
68608;SDS011;55581;46.718;7.690;2023-12-14T09:23:44;2.07;;;0.43;;
68608;SDS011;55581;46.718;7.690;2023-12-14T09:26:09;2.05;;;0.35;;
68608;SDS011;55581;46.718;7.690;2023-12-14T09:28:35;1.37;;;0.20;;
68608;SDS011;55581;46.718;7.690;2023-12-14T09:31:02;3.17;;;0.55;;
68608;SDS011;55581;46.718;7.690;2023-12-14T09:33:27;1.08;;;0.20;;
68608;SDS011;55581;46.718;7.690;2023-12-14T09:35:53;1.63;;;0.30;;
68608;SDS011;55581;46.718;7.690;2023-12-14T09:38:21;2.28;;;0.40;;
68608;SDS011;55581;46.718;7.690;2023-12-14T09:40:46;1.30;;;0.30;;
68608;SDS011;55581;46.718;7.690;2023-12-14T09:43:12;3.23;;;0.60;;
68608;SDS011;55581;46.718;7.690;2023-12-14T09:45:38;1.92;;;0.30;;
68608;SDS011;55581;46.718;7.690;2023-12-14T09:48:09;2.83;;;0.50;;
68608;SDS011;55581;46.718;7.690;2023-12-14T09:50:36;3.53;;;0.30;;
68608;SDS011;55581;46.718;7.690;2023-12-14T09:53:05;3.25;;;1.25;;
68608;SDS011;55581;46.718;7.690;2023-12-14T09:55:30;2.40;;;0.50;;
68608;SDS011;55581;46.718;7.690;2023-12-14T09:57:58;4.50;;;2.90;;
68608;SDS011;55581;46.718;7.690;2023-12-14T10:03:25;3.55;;;1.48;;
68608;SDS011;55581;46.718;7.690;2023-12-14T10:05:53;2.70;;;0.60;;
68608;SDS011;55581;46.718;7.690;2023-12-14T10:08:23;2.20;;;0.40;;
68608;SDS011;55581;46.718;7.690;2023-12-14T10:10:51;2.00;;;0.20;;
68608;SDS011;55581;46.718;7.690;2023-12-14T10:13:21;1.60;;;0.30;;
68608;SDS011;55581;46.718;7.690;2023-12-14T10:16:00;2.45;;;0.35;;
68608;SDS011;55581;46.718;7.690;2023-12-14T10:18:33;2.23;;;0.30;;
68608;SDS011;55581;46.718;7.690;2023-12-14T10:21:01;2.85;;;0.60;;
68608;SDS011;55581;46.718;7.690;2023-12-14T10:23:27;4.27;;;1.23;;
68608;SDS011;55581;46.718;7.690;2023-12-14T10:25:55;3.70;;;1.23;;
68608;SDS011;55581;46.718;7.690;2023-12-14T10:28:21;3.70;;;1.13;;
68608;SDS011;55581;46.718;7.690;2023-12-14T10:30:47;3.23;;;1.00;;
68608;SDS011;55581;46.718;7.690;2023-12-14T10:33:13;2.78;;;0.98;;
68608;SDS011;55581;46.718;7.690;2023-12-14T10:35:41;3.80;;;1.33;;
68608;SDS011;55581;46.718;7.690;2023-12-14T10:38:07;1.53;;;0.30;;
68608;SDS011;55581;46.718;7.690;2023-12-14T10:40:36;2.38;;;0.57;;
68608;SDS011;55581;46.718;7.690;2023-12-14T10:43:06;2.25;;;0.55;;
68608;SDS011;55581;46.718;7.690;2023-12-14T10:45:32;1.87;;;0.40;;
68608;SDS011;55581;46.718;7.690;2023-12-14T10:48:00;1.67;;;0.20;;
68608;SDS011;55581;46.718;7.690;2023-12-14T10:50:28;1.27;;;0.20;;
68608;SDS011;55581;46.718;7.690;2023-12-14T10:52:54;1.90;;;0.25;;
68608;SDS011;55581;46.718;7.690;2023-12-14T10:57:51;1.45;;;0.20;;
68608;SDS011;55581;46.718;7.690;2023-12-14T11:00:18;1.25;;;0.22;;
68608;SDS011;55581;46.718;7.690;2023-12-14T11:02:46;2.47;;;0.40;;
68608;SDS011;55581;46.718;7.690;2023-12-14T11:05:13;2.17;;;0.38;;
68608;SDS011;55581;46.718;7.690;2023-12-14T11:10:12;1.65;;;0.20;;
68608;SDS011;55581;46.718;7.690;2023-12-14T11:12:54;1.63;;;0.20;;
68608;SDS011;55581;46.718;7.690;2023-12-14T11:15:30;1.00;;;0.20;;
68608;SDS011;55581;46.718;7.690;2023-12-14T11:23:27;2.45;;;0.40;;
68608;SDS011;55581;46.718;7.690;2023-12-14T11:26:10;1.73;;;0.20;;
68608;SDS011;55581;46.718;7.690;2023-12-14T11:28:37;1.73;;;0.20;;
68608;SDS011;55581;46.718;7.690;2023-12-14T11:31:07;1.45;;;0.20;;
68608;SDS011;55581;46.718;7.690;2023-12-14T11:33:37;1.02;;;0.20;;
68608;SDS011;55581;46.718;7.690;2023-12-14T11:36:03;1.57;;;0.30;;
68608;SDS011;55581;46.718;7.690;2023-12-14T11:38:28;1.55;;;0.40;;
68608;SDS011;55581;46.718;7.690;2023-12-14T11:40:55;1.10;;;0.20;;
68608;SDS011;55581;46.718;7.690;2023-12-14T11:43:20;0.90;;;0.10;;
68608;SDS011;55581;46.718;7.690;2023-12-14T11:45:48;1.43;;;0.10;;
68608;SDS011;55581;46.718;7.690;2023-12-14T11:48:13;1.95;;;0.32;;
68608;SDS011;55581;46.718;7.690;2023-12-14T11:50:40;1.95;;;0.47;;
68608;SDS011;55581;46.718;7.690;2023-12-14T11:53:07;1.92;;;0.30;;
68608;SDS011;55581;46.718;7.690;2023-12-14T11:55:34;2.58;;;0.40;;
68608;SDS011;55581;46.718;7.690;2023-12-14T11:58:04;1.83;;;0.30;;
68608;SDS011;55581;46.718;7.690;2023-12-14T12:00:30;2.28;;;0.20;;
68608;SDS011;55581;46.718;7.690;2023-12-14T12:05:49;0.82;;;0.20;;
68608;SDS011;55581;46.718;7.690;2023-12-14T12:08:17;1.48;;;0.20;;
68608;SDS011;55581;46.718;7.690;2023-12-14T12:10:46;1.77;;;0.20;;
68608;SDS011;55581;46.718;7.690;2023-12-14T12:13:13;2.30;;;0.25;;
68608;SDS011;55581;46.718;7.690;2023-12-14T12:15:42;1.30;;;0.30;;
68608;SDS011;55581;46.718;7.690;2023-12-14T12:18:09;1.70;;;0.30;;
68608;SDS011;55581;46.718;7.690;2023-12-14T12:20:36;3.35;;;0.70;;
68608;SDS011;55581;46.718;7.690;2023-12-14T12:23:02;2.67;;;0.30;;
68608;SDS011;55581;46.718;7.690;2023-12-14T12:25:30;2.53;;;0.40;;
68608;SDS011;55581;46.718;7.690;2023-12-14T12:27:56;1.50;;;0.20;;
68608;SDS011;55581;46.718;7.690;2023-12-14T12:30:22;5.00;;;1.00;;
68608;SDS011;55581;46.718;7.690;2023-12-14T12:32:48;1.48;;;0.30;;
68608;SDS011;55581;46.718;7.690;2023-12-14T12:35:17;1.63;;;0.20;;
68608;SDS011;55581;46.718;7.690;2023-12-14T12:37:46;1.75;;;0.20;;
68608;SDS011;55581;46.718;7.690;2023-12-14T12:40:11;1.97;;;0.30;;
68608;SDS011;55581;46.718;7.690;2023-12-14T12:42:37;1.63;;;0.28;;
68608;SDS011;55581;46.718;7.690;2023-12-14T12:45:05;1.23;;;0.20;;
68608;SDS011;55581;46.718;7.690;2023-12-14T12:47:31;2.22;;;0.40;;
68608;SDS011;55581;46.718;7.690;2023-12-14T12:49:59;3.03;;;0.90;;
68608;SDS011;55581;46.718;7.690;2023-12-14T12:52:24;2.58;;;0.40;;
68608;SDS011;55581;46.718;7.690;2023-12-14T12:54:52;3.43;;;0.60;;
68608;SDS011;55581;46.718;7.690;2023-12-14T12:57:17;3.17;;;0.40;;
68608;SDS011;55581;46.718;7.690;2023-12-14T12:59:43;1.77;;;0.40;;
68608;SDS011;55581;46.718;7.690;2023-12-14T13:02:08;2.67;;;0.47;;
68608;SDS011;55581;46.718;7.690;2023-12-14T13:04:34;2.17;;;0.40;;
68608;SDS011;55581;46.718;7.690;2023-12-14T13:06:59;2.27;;;0.43;;
68608;SDS011;55581;46.718;7.690;2023-12-14T13:09:29;2.92;;;0.30;;
68608;SDS011;55581;46.718;7.690;2023-12-14T13:11:54;2.30;;;0.50;;
68608;SDS011;55581;46.718;7.690;2023-12-14T13:14:21;1.80;;;0.40;;
68608;SDS011;55581;46.718;7.690;2023-12-14T13:16:47;3.27;;;0.77;;
68608;SDS011;55581;46.718;7.690;2023-12-14T13:19:14;3.03;;;0.80;;
68608;SDS011;55581;46.718;7.690;2023-12-14T13:21:40;3.08;;;1.00;;
68608;SDS011;55581;46.718;7.690;2023-12-14T13:24:06;2.60;;;0.77;;
68608;SDS011;55581;46.718;7.690;2023-12-14T13:26:31;3.47;;;1.00;;
68608;SDS011;55581;46.718;7.690;2023-12-14T13:28:59;4.35;;;1.75;;
68608;SDS011;55581;46.718;7.690;2023-12-14T13:31:24;3.67;;;1.57;;
68608;SDS011;55581;46.718;7.690;2023-12-14T13:33:50;4.00;;;1.20;;
68608;SDS011;55581;46.718;7.690;2023-12-14T13:36:15;2.93;;;1.10;;
68608;SDS011;55581;46.718;7.690;2023-12-14T13:38:41;4.38;;;1.17;;
68608;SDS011;55581;46.718;7.690;2023-12-14T13:41:07;3.33;;;1.10;;
68608;SDS011;55581;46.718;7.690;2023-12-14T13:43:33;3.47;;;1.37;;
68608;SDS011;55581;46.718;7.690;2023-12-14T13:45:58;4.10;;;1.60;;
68608;SDS011;55581;46.718;7.690;2023-12-14T13:48:24;3.50;;;1.13;;
68608;SDS011;55581;46.718;7.690;2023-12-14T13:50:51;4.53;;;1.55;;
68608;SDS011;55581;46.718;7.690;2023-12-14T13:53:16;3.60;;;1.20;;
68608;SDS011;55581;46.718;7.690;2023-12-14T13:55:41;2.90;;;0.70;;
68608;SDS011;55581;46.718;7.690;2023-12-14T13:58:09;3.23;;;0.90;;
68608;SDS011;55581;46.718;7.690;2023-12-14T14:00:35;4.22;;;1.10;;
68608;SDS011;55581;46.718;7.690;2023-12-14T14:03:01;3.67;;;1.42;;
68608;SDS011;55581;46.718;7.690;2023-12-14T14:05:30;4.93;;;1.25;;
68608;SDS011;55581;46.718;7.690;2023-12-14T14:07:56;3.53;;;1.33;;
68608;SDS011;55581;46.718;7.690;2023-12-14T14:10:22;4.90;;;1.20;;
68608;SDS011;55581;46.718;7.690;2023-12-14T14:12:48;2.72;;;1.00;;
68608;SDS011;55581;46.718;7.690;2023-12-14T14:15:14;4.10;;;1.03;;
68608;SDS011;55581;46.718;7.690;2023-12-14T14:17:39;4.00;;;1.30;;
68608;SDS011;55581;46.718;7.690;2023-12-14T14:20:05;3.95;;;1.10;;
68608;SDS011;55581;46.718;7.690;2023-12-14T14:22:32;4.25;;;1.40;;
68608;SDS011;55581;46.718;7.690;2023-12-14T14:24:58;3.30;;;1.00;;
68608;SDS011;55581;46.718;7.690;2023-12-14T14:27:25;4.05;;;0.82;;
68608;SDS011;55581;46.718;7.690;2023-12-14T14:29:50;3.47;;;1.03;;
68608;SDS011;55581;46.718;7.690;2023-12-14T14:32:19;3.90;;;1.20;;
68608;SDS011;55581;46.718;7.690;2023-12-14T14:34:46;4.63;;;0.93;;
68608;SDS011;55581;46.718;7.690;2023-12-14T14:37:12;4.00;;;1.00;;
68608;SDS011;55581;46.718;7.690;2023-12-14T14:39:39;4.43;;;0.80;;
68608;SDS011;55581;46.718;7.690;2023-12-14T14:42:08;5.00;;;0.90;;
68608;SDS011;55581;46.718;7.690;2023-12-14T14:44:36;3.53;;;0.90;;
68608;SDS011;55581;46.718;7.690;2023-12-14T14:47:02;3.50;;;1.00;;
68608;SDS011;55581;46.718;7.690;2023-12-14T14:49:28;4.25;;;1.00;;
68608;SDS011;55581;46.718;7.690;2023-12-14T14:51:53;3.10;;;0.80;;
68608;SDS011;55581;46.718;7.690;2023-12-14T14:54:19;3.43;;;0.90;;
68608;SDS011;55581;46.718;7.690;2023-12-14T14:56:44;5.57;;;1.40;;
68608;SDS011;55581;46.718;7.690;2023-12-14T14:59:12;3.63;;;0.82;;